createdAt,value
2022-12-23T00:01:37.014Z,100654.66
2022-12-23T00:04:07.387Z,100655.06
2022-12-23T00:06:38.088Z,100659.19
2022-12-23T00:09:08.125Z,100666.69
2022-12-23T00:11:58.570Z,100667.56
2022-12-23T00:14:46.880Z,100664.50
2022-12-23T00:17:22.483Z,100661.44
2022-12-23T00:19:53.091Z,100676.22
2022-12-23T00:22:43.520Z,100672.59
2022-12-23T00:25:14.579Z,100675.91
2022-12-23T00:28:02.477Z,100682.84
2022-12-23T00:30:32.506Z,100692.31
2022-12-23T00:33:05.424Z,100693.50
2022-12-23T00:35:35.940Z,100686.47
2022-12-23T00:38:09.123Z,100687.34
2022-12-23T00:40:59.111Z,100691.13
2022-12-23T00:43:29.751Z,100694.34
2022-12-23T00:46:00.400Z,100693.44
2022-12-23T00:48:48.395Z,100695.78
2022-12-23T00:51:18.803Z,100699.56
2022-12-23T00:53:49.326Z,100698.59
2022-12-23T00:56:19.820Z,100694.78
2022-12-23T00:58:50.266Z,100701.78
2022-12-23T01:01:39.150Z,100704.06
2022-12-23T01:04:28.909Z,100701.44
2022-12-23T01:06:59.345Z,100706.19
2022-12-23T01:09:29.772Z,100707.19
2022-12-23T01:12:00.691Z,100682.94
2022-12-23T01:14:30.942Z,100707.31
2022-12-23T01:17:04.792Z,100707.09
2022-12-23T01:19:35.642Z,100702.22
2022-12-23T01:22:06.225Z,100701.72
2022-12-23T01:24:35.903Z,100708.31
2022-12-23T01:27:06.302Z,100709.66
2022-12-23T01:29:36.573Z,100712.13
2022-12-23T01:32:07.443Z,100701.00
2022-12-23T01:34:37.758Z,100704.72
2022-12-23T01:37:08.277Z,100707.41
2022-12-23T01:39:38.494Z,100698.50
2022-12-23T01:42:33.535Z,100700.22
2022-12-23T01:45:18.003Z,100700.59
2022-12-23T01:48:01.562Z,100699.88
2022-12-23T01:50:42.107Z,100689.28
2022-12-23T01:53:23.555Z,100688.09
2022-12-23T01:55:58.851Z,100693.72
2022-12-23T01:58:44.024Z,100689.44
2022-12-23T02:01:32.800Z,100675.97
2022-12-23T02:04:09.066Z,100684.19
2022-12-23T02:07:02.958Z,100686.19
2022-12-23T02:09:37.167Z,100678.59
2022-12-23T02:12:26.183Z,100685.19
2022-12-23T02:15:32.331Z,100675.91
2022-12-23T02:18:17.916Z,100666.59
2022-12-23T02:21:30.737Z,100667.78
2022-12-23T02:24:39.415Z,100665.00
2022-12-23T02:27:26.483Z,100658.84
2022-12-23T02:30:08.708Z,100657.50
2022-12-23T02:33:05.859Z,100662.53
2022-12-23T02:35:54.044Z,100665.16
2022-12-23T02:39:07.773Z,100655.38
2022-12-23T02:41:52.958Z,100656.84
2022-12-23T02:44:40.662Z,100646.94
2022-12-23T02:47:24.534Z,100661.44
2022-12-23T02:50:04.033Z,100653.00
2022-12-23T02:52:37.865Z,100647.44
2022-12-23T02:55:17.269Z,100646.00
2022-12-23T02:57:51.660Z,100614.38
2022-12-23T03:00:23.966Z,100630.31
2022-12-23T03:02:54.243Z,100632.25
2022-12-23T03:05:41.696Z,100621.50
2022-12-23T03:08:19.816Z,100605.81
2022-12-23T03:11:41.136Z,100608.34
2022-12-23T03:14:32.211Z,100606.91
2022-12-23T03:17:15.242Z,100606.91
2022-12-23T03:19:55.763Z,100599.47
2022-12-23T03:22:35.133Z,100592.06
2022-12-23T03:25:15.124Z,100592.69
2022-12-23T03:27:54.577Z,100583.88
2022-12-23T03:30:26.008Z,100588.31
2022-12-23T03:33:09.497Z,100589.59
2022-12-23T03:35:45.619Z,100585.41
2022-12-23T03:38:19.350Z,100590.56
2022-12-23T03:41:03.603Z,100588.63
2022-12-23T03:43:51.038Z,100588.34
2022-12-23T03:46:32.255Z,100580.50
2022-12-23T03:49:10.387Z,100575.34
2022-12-23T03:51:54.320Z,100566.03
2022-12-23T03:54:37.844Z,100584.94
2022-12-23T03:57:10.668Z,100573.16
2022-12-23T03:59:47.064Z,100581.97
2022-12-23T04:02:59.708Z,100575.84
2022-12-23T04:05:36.515Z,100574.38
2022-12-23T04:08:24.262Z,100579.78
2022-12-23T04:10:55.049Z,100575.59
2022-12-23T04:13:24.764Z,100574.38
2022-12-23T04:15:55.552Z,100569.94
2022-12-23T04:18:25.848Z,100564.78
2022-12-23T04:20:56.529Z,100571.13
2022-12-23T04:23:26.732Z,100544.41
2022-12-23T04:25:58.353Z,100561.78
2022-12-23T04:28:28.516Z,100563.53
2022-12-23T04:30:59.064Z,100553.00
2022-12-23T04:33:29.308Z,100549.06
2022-12-23T04:36:02.074Z,100552.50
2022-12-23T04:38:32.376Z,100554.41
2022-12-23T04:41:02.954Z,100543.16
2022-12-23T04:43:33.172Z,100547.78
2022-12-23T04:46:03.693Z,100551.22
2022-12-23T04:48:33.958Z,100553.38
2022-12-23T04:51:06.441Z,100548.97
2022-12-23T04:53:38.688Z,100548.97
2022-12-23T04:56:09.210Z,100549.22
2022-12-23T04:58:39.329Z,100550.19
2022-12-23T05:01:12.339Z,100543.06
2022-12-23T05:03:43.260Z,100545.78
2022-12-23T05:06:13.740Z,100550.19
2022-12-23T05:08:43.892Z,100541.13
2022-12-23T05:11:15.038Z,100538.91
2022-12-23T05:13:46.623Z,100534.19
2022-12-23T05:16:17.222Z,100540.16
2022-12-23T05:18:47.437Z,100536.75
2022-12-23T05:21:18.386Z,100529.09
2022-12-23T05:23:48.442Z,100526.16
2022-12-23T05:26:18.411Z,100524.94
2022-12-23T05:28:48.576Z,100528.59
2022-12-23T05:31:19.128Z,100521.50
2022-12-23T05:33:49.888Z,100523.03
2022-12-23T05:36:20.511Z,100525.53
2022-12-23T05:38:50.456Z,100509.31
2022-12-23T05:41:21.138Z,100524.06
2022-12-23T05:43:51.178Z,100515.47
2022-12-23T05:46:26.255Z,100523.09
2022-12-23T05:48:56.993Z,100509.84
2022-12-23T05:51:27.649Z,100518.94
2022-12-23T05:54:01.312Z,100508.13
2022-12-23T05:56:31.802Z,100509.84
2022-12-23T05:59:01.891Z,100511.50
2022-12-23T06:01:31.861Z,100511.44
2022-12-23T06:04:02.213Z,100508.66
2022-12-23T06:06:32.887Z,100520.06
2022-12-23T06:09:03.059Z,100508.75
2022-12-23T06:11:33.569Z,100491.47
2022-12-23T06:14:04.065Z,100512.09
2022-12-23T06:16:35.211Z,100517.59
2022-12-23T06:19:05.592Z,100512.75
2022-12-23T06:21:36.184Z,100516.41
2022-12-23T06:24:06.572Z,100513.03
2022-12-23T06:26:37.219Z,100517.69
2022-12-23T06:29:07.400Z,100523.06
2022-12-23T06:31:38.192Z,100519.13
2022-12-23T06:34:08.251Z,100518.34
2022-12-23T06:36:38.197Z,100518.28
2022-12-23T06:39:07.964Z,100515.13
2022-12-23T06:41:38.376Z,100516.84
2022-12-23T06:44:09.095Z,100512.03
2022-12-23T06:46:39.350Z,100506.16
2022-12-23T06:49:13.378Z,100510.00
2022-12-23T06:51:43.952Z,100509.91
2022-12-23T06:54:14.550Z,100517.22
2022-12-23T06:56:44.642Z,100512.31
2022-12-23T06:59:14.635Z,100512.22
2022-12-23T07:01:44.744Z,100509.19
2022-12-23T07:04:15.384Z,100522.41
2022-12-23T07:06:45.498Z,100521.19
2022-12-23T07:09:15.441Z,100521.72
2022-12-23T07:11:45.208Z,100508.22
2022-12-23T07:14:15.275Z,100522.25
2022-12-23T07:16:49.215Z,100524.75
2022-12-23T07:19:19.232Z,100531.22
2022-12-23T07:21:49.215Z,100540.13
2022-12-23T07:24:19.008Z,100539.53
2022-12-23T07:26:49.188Z,100533.28
2022-12-23T07:29:19.687Z,100523.69
2022-12-23T07:31:49.796Z,100541.84
2022-12-23T07:34:20.961Z,100540.66
2022-12-23T07:36:50.988Z,100540.00
2022-12-23T07:39:21.850Z,100544.59
2022-12-23T07:42:09.000Z,100529.78
2022-12-23T07:44:42.595Z,100552.53
2022-12-23T07:47:12.722Z,100547.41
2022-12-23T07:49:43.260Z,100546.50
2022-12-23T07:52:13.331Z,100543.78
2022-12-23T07:54:43.335Z,100550.94
2022-12-23T07:57:16.104Z,100550.19
2022-12-23T07:59:46.644Z,100547.56
2022-12-23T08:02:16.883Z,100544.06
2022-12-23T08:04:47.707Z,100548.31
2022-12-23T08:07:17.839Z,100542.38
2022-12-23T08:09:47.791Z,100550.00
2022-12-23T08:12:18.414Z,100555.88
2022-12-23T08:14:53.819Z,100560.91
2022-12-23T08:17:27.309Z,100526.06
2022-12-23T08:19:58.745Z,100553.16
2022-12-23T08:22:28.811Z,100564.56
2022-12-23T08:25:00.545Z,100567.03
2022-12-23T08:27:30.450Z,100573.28
2022-12-23T08:30:00.370Z,100573.00
2022-12-23T08:32:30.888Z,100582.34
2022-12-23T08:35:01.472Z,100586.22
2022-12-23T08:37:31.483Z,100588.06
2022-12-23T08:40:01.503Z,100594.22
2022-12-23T08:42:31.979Z,100589.81
2022-12-23T08:45:05.171Z,100599.44
2022-12-23T08:47:35.745Z,100607.97
2022-12-23T08:50:06.440Z,100611.31
2022-12-23T08:52:37.156Z,100614.19
2022-12-23T08:55:07.524Z,100620.69
2022-12-23T08:57:38.109Z,100614.66
2022-12-23T09:00:08.986Z,100625.94
2022-12-23T09:02:39.832Z,100630.50
2022-12-23T09:05:09.827Z,100629.66
2022-12-23T09:07:40.232Z,100635.09
2022-12-23T09:10:10.654Z,100642.06
2022-12-23T09:12:41.439Z,100633.91
2022-12-23T09:15:11.363Z,100606.44
2022-12-23T09:17:41.119Z,100638.19
2022-12-23T09:20:12.129Z,100654.09
2022-12-23T09:22:44.894Z,100654.78
2022-12-23T09:25:16.806Z,100655.44
2022-12-23T09:27:46.869Z,100663.31
2022-12-23T09:30:17.417Z,100663.00
2022-12-23T09:32:47.065Z,100659.47
2022-12-23T09:35:17.488Z,100665.44
2022-12-23T09:37:47.324Z,100665.84
2022-12-23T09:40:22.604Z,100673.66
2022-12-23T09:43:04.493Z,100668.13
2022-12-23T09:46:05.282Z,100682.75
2022-12-23T09:48:44.648Z,100680.22
2022-12-23T09:51:16.046Z,100680.50
2022-12-23T09:54:08.701Z,100687.28
2022-12-23T09:57:09.651Z,100687.69
2022-12-23T10:00:04.915Z,100687.38
2022-12-23T10:02:48.891Z,100695.53
2022-12-23T10:05:42.089Z,100699.94
2022-12-23T10:08:43.252Z,100699.78
2022-12-23T10:11:18.964Z,100701.00
2022-12-23T10:14:02.158Z,100693.56
2022-12-23T10:16:41.416Z,100714.91
2022-12-23T10:19:22.226Z,100717.44
2022-12-23T10:22:04.326Z,100718.88
2022-12-23T10:24:49.187Z,100714.75
2022-12-23T10:27:32.442Z,100717.72
2022-12-23T10:30:53.849Z,100716.25
2022-12-23T10:33:46.746Z,100703.50
2022-12-23T10:36:31.045Z,100733.72
2022-12-23T10:39:04.136Z,100734.03
2022-12-23T10:42:12.307Z,100743.97
2022-12-23T10:45:11.104Z,100742.66
2022-12-23T10:47:53.907Z,100738.84
2022-12-23T10:50:36.016Z,100736.78
2022-12-23T10:53:12.711Z,100739.28
2022-12-23T10:55:42.912Z,100742.25
2022-12-23T10:58:19.447Z,100749.28
2022-12-23T11:01:01.387Z,100754.28
2022-12-23T11:03:41.757Z,100760.81
2022-12-23T11:06:13.876Z,100755.84
2022-12-23T11:08:44.893Z,100764.31
2022-12-23T11:11:15.925Z,100756.50
2022-12-23T11:13:49.008Z,100757.63
2022-12-23T11:16:25.351Z,100767.09
2022-12-23T11:19:07.662Z,100770.53
2022-12-23T11:21:37.708Z,100766.22
2022-12-23T11:24:23.367Z,100771.59
2022-12-23T11:27:08.926Z,100775.56
2022-12-23T11:29:45.546Z,100780.41
2022-12-23T11:32:26.580Z,100752.03
2022-12-23T11:34:58.191Z,100762.59
2022-12-23T11:37:39.504Z,100775.22
2022-12-23T11:40:23.632Z,100767.41
2022-12-23T11:43:06.509Z,100771.03
2022-12-23T11:45:38.920Z,100764.31
2022-12-23T11:48:29.504Z,100766.16
2022-12-23T11:51:05.474Z,100759.91
2022-12-23T11:53:37.728Z,100759.59
2022-12-23T11:56:12.088Z,100758.16
2022-12-23T11:58:53.538Z,100754.31
2022-12-23T12:01:27.592Z,100750.72
2022-12-23T12:04:03.493Z,100757.00
2022-12-23T12:06:34.980Z,100749.94
2022-12-23T12:09:07.911Z,100751.06
2022-12-23T12:11:45.824Z,100750.69
2022-12-23T12:14:33.113Z,100752.78
2022-12-23T12:17:13.691Z,100747.84
2022-12-23T12:20:02.229Z,100753.06
2022-12-23T12:22:48.081Z,100753.09
2022-12-23T12:25:45.839Z,100748.66
2022-12-23T12:28:22.690Z,100743.78
2022-12-23T12:31:20.678Z,100748.78
2022-12-23T12:34:16.523Z,100743.47
2022-12-23T12:37:28.934Z,100740.81
2022-12-23T12:40:05.907Z,100735.53
2022-12-23T12:42:54.369Z,100735.31
2022-12-23T12:45:29.815Z,100726.28
2022-12-23T12:48:24.698Z,100730.28
2022-12-23T12:51:03.490Z,100727.31
2022-12-23T12:53:35.124Z,100730.19
2022-12-23T12:56:16.640Z,100732.09
2022-12-23T12:58:47.115Z,100726.25
2022-12-23T13:01:20.135Z,100727.22
2022-12-23T13:04:14.851Z,100734.09
2022-12-23T13:07:05.913Z,100720.25
2022-12-23T13:10:13.273Z,100713.88
2022-12-23T13:13:10.743Z,100724.44
2022-12-23T13:15:52.061Z,100710.28
2022-12-23T13:18:40.361Z,100710.25
2022-12-23T13:21:33.340Z,100713.38
2022-12-23T13:24:11.831Z,100717.81
2022-12-23T13:27:02.607Z,100716.16
2022-12-23T13:29:58.301Z,100697.84
2022-12-23T13:33:03.265Z,100713.59
2022-12-23T13:36:16.148Z,100703.56
2022-12-23T13:39:05.802Z,100693.75
2022-12-23T13:41:50.539Z,100695.69
2022-12-23T13:44:22.501Z,100702.13
2022-12-23T13:47:14.233Z,100703.50
2022-12-23T13:50:11.976Z,100697.59
2022-12-23T13:53:11.265Z,100693.50
2022-12-23T13:56:03.079Z,100700.78
2022-12-23T13:58:34.606Z,100694.34
2022-12-23T14:01:05.111Z,100675.00
2022-12-23T14:03:37.333Z,100678.16
2022-12-23T14:06:45.333Z,100672.41
2022-12-23T14:09:18.139Z,100675.44
2022-12-23T14:11:49.417Z,100671.25
2022-12-23T14:14:26.416Z,100671.00
2022-12-23T14:17:09.255Z,100666.69
2022-12-23T14:19:43.885Z,100665.38
2022-12-23T14:22:51.055Z,100665.13
2022-12-23T14:25:56.822Z,100668.94
2022-12-23T14:28:46.209Z,100656.00
2022-12-23T14:31:42.808Z,100654.53
2022-12-23T14:34:21.306Z,100650.16
2022-12-23T14:37:22.342Z,100643.72
2022-12-23T14:39:54.234Z,100642.16
2022-12-23T14:42:44.752Z,100644.06
2022-12-23T14:45:43.789Z,100638.31
2022-12-23T14:48:45.935Z,100647.47
2022-12-23T14:51:16.367Z,100631.94
2022-12-23T14:54:01.856Z,100633.53
2022-12-23T14:56:44.354Z,100622.28
2022-12-23T14:59:47.066Z,100619.84
2022-12-23T15:02:21.378Z,100616.31
2022-12-23T15:04:59.872Z,100603.00
2022-12-23T15:07:43.368Z,100609.28
2022-12-23T15:10:39.676Z,100612.00
2022-12-23T15:13:18.908Z,100608.50
2022-12-23T15:16:01.338Z,100605.25
2022-12-23T15:18:32.137Z,100607.72
2022-12-23T15:21:03.320Z,100606.97
2022-12-23T15:23:34.390Z,100600.63
2022-12-23T15:26:04.806Z,100599.47
2022-12-23T15:28:41.013Z,100593.09
2022-12-23T15:31:44.662Z,100587.25
2022-12-23T15:34:28.561Z,100591.09
2022-12-23T15:36:59.135Z,100572.63
2022-12-23T15:39:29.597Z,100585.38
2022-12-23T15:41:59.767Z,100578.81
2022-12-23T15:44:39.482Z,100585.47
2022-12-23T15:47:33.073Z,100584.19
2022-12-23T15:50:05.133Z,100581.47
2022-12-23T15:52:35.280Z,100590.16
2022-12-23T15:55:26.043Z,100576.75
2022-12-23T15:57:56.470Z,100555.34
2022-12-23T16:00:32.676Z,100567.53
2022-12-23T16:03:05.625Z,100574.53
2022-12-23T16:05:40.478Z,100555.00
2022-12-23T16:08:33.738Z,100575.78
2022-12-23T16:11:22.164Z,100569.22
2022-12-23T16:14:04.467Z,100562.88
2022-12-23T16:16:45.528Z,100535.19
2022-12-23T16:19:51.790Z,100556.16
2022-12-23T16:22:31.258Z,100545.63
2022-12-23T16:25:09.554Z,100551.69
2022-12-23T16:27:45.010Z,100536.63
2022-12-23T16:30:22.125Z,100552.78
2022-12-23T16:32:56.215Z,100537.91
2022-12-23T16:35:41.990Z,100526.81
2022-12-23T16:38:26.196Z,100533.09
2022-12-23T16:40:58.302Z,100521.22
2022-12-23T16:43:28.756Z,100514.00
2022-12-23T16:45:59.577Z,100509.47
2022-12-23T16:48:37.027Z,100512.69
2022-12-23T16:51:15.082Z,100519.13
2022-12-23T16:53:45.641Z,100500.03
2022-12-23T16:56:17.663Z,100508.28
2022-12-23T16:58:48.359Z,100503.84
2022-12-23T17:01:23.702Z,100497.06
2022-12-23T17:03:55.176Z,100501.78
2022-12-23T17:06:26.481Z,100504.84
2022-12-23T17:08:58.115Z,100499.78
2022-12-23T17:11:37.187Z,100499.94
2022-12-23T17:14:15.235Z,100498.59
2022-12-23T17:16:47.056Z,100494.97
2022-12-23T17:19:23.395Z,100489.84
2022-12-23T17:22:02.323Z,100493.75
2022-12-23T17:24:32.907Z,100487.81
2022-12-23T17:27:03.092Z,100489.66
2022-12-23T17:29:33.579Z,100477.28
2022-12-23T17:32:04.509Z,100475.78
2022-12-23T17:34:35.759Z,100479.47
2022-12-23T17:37:20.904Z,100469.75
2022-12-23T17:39:51.544Z,100453.66
2022-12-23T17:42:26.072Z,100469.38
2022-12-23T17:44:56.455Z,100465.78
2022-12-23T17:47:26.949Z,100451.72
2022-12-23T17:49:56.989Z,100456.72
2022-12-23T17:52:27.889Z,100451.81
2022-12-23T17:54:57.945Z,100453.19
2022-12-23T17:57:28.970Z,100432.00
2022-12-23T17:59:59.016Z,100449.66
2022-12-23T18:02:33.985Z,100439.25
2022-12-23T18:05:17.388Z,100443.34
2022-12-23T18:07:47.891Z,100437.69
2022-12-23T18:10:19.734Z,100439.91
2022-12-23T18:12:55.108Z,100432.91
2022-12-23T18:15:37.167Z,100433.84
2022-12-23T18:18:24.146Z,100415.91
2022-12-23T18:21:02.585Z,100422.47
2022-12-23T18:23:34.963Z,100421.72
2022-12-23T18:26:05.724Z,100405.16
2022-12-23T18:28:36.223Z,100404.22
2022-12-23T18:31:06.354Z,100377.19
2022-12-23T18:33:36.917Z,100399.66
2022-12-23T18:36:07.176Z,100411.97
2022-12-23T18:38:37.796Z,100403.16
2022-12-23T18:41:07.925Z,100383.22
2022-12-23T18:43:38.423Z,100390.84
2022-12-23T18:46:08.575Z,100378.41
2022-12-23T18:48:39.177Z,100376.84
2022-12-23T18:51:11.971Z,100373.41
2022-12-23T18:53:42.856Z,100379.88
2022-12-23T18:56:17.047Z,100372.84
2022-12-23T18:58:47.610Z,100373.59
2022-12-23T19:01:19.821Z,100374.22
2022-12-23T19:03:50.510Z,100374.09
2022-12-23T19:06:20.715Z,100370.53
2022-12-23T19:08:51.513Z,100357.00
2022-12-23T19:11:22.617Z,100331.56
2022-12-23T19:13:53.304Z,100356.09
2022-12-23T19:16:23.716Z,100351.88
2022-12-23T19:18:54.491Z,100348.00
2022-12-23T19:21:24.623Z,100357.22
2022-12-23T19:23:55.243Z,100351.75
2022-12-23T19:26:25.637Z,100353.97
2022-12-23T19:28:57.229Z,100352.44
2022-12-23T19:31:27.363Z,100338.56
2022-12-23T19:33:57.956Z,100342.75
2022-12-23T19:36:28.273Z,100333.41
2022-12-23T19:38:59.557Z,100345.66
2022-12-23T19:41:29.653Z,100343.09
2022-12-23T19:44:00.134Z,100344.78
2022-12-23T19:46:30.379Z,100335.59
2022-12-23T19:49:01.085Z,100343.44
2022-12-23T19:51:31.201Z,100340.72
2022-12-23T19:54:01.700Z,100338.09
2022-12-23T19:56:33.510Z,100312.53
2022-12-23T19:59:05.481Z,100328.13
2022-12-23T20:01:35.620Z,100321.88
2022-12-23T20:04:06.679Z,100322.47
2022-12-23T20:06:40.161Z,100323.47
2022-12-23T20:09:13.336Z,100318.66
2022-12-23T20:11:48.800Z,100312.31
2022-12-23T20:14:20.331Z,100319.28
2022-12-23T20:16:50.788Z,100323.00
2022-12-23T20:19:21.739Z,100311.66
2022-12-23T20:21:51.776Z,100303.47
2022-12-23T20:24:22.392Z,100301.81
2022-12-23T20:26:52.666Z,100303.84
2022-12-23T20:29:23.124Z,100309.94
2022-12-23T20:31:53.195Z,100314.06
2022-12-23T20:34:24.431Z,100319.66
2022-12-23T20:36:55.325Z,100317.25
2022-12-23T20:39:25.990Z,100311.72
2022-12-23T20:41:56.005Z,100313.09
2022-12-23T20:44:35.690Z,100310.75
2022-12-23T20:47:09.458Z,100310.91
2022-12-23T20:49:40.048Z,100315.69
2022-12-23T20:52:10.493Z,100296.28
2022-12-23T20:54:41.690Z,100322.41
2022-12-23T20:57:11.702Z,100313.88
2022-12-23T20:59:42.310Z,100308.75
2022-12-23T21:02:17.750Z,100278.22
2022-12-23T21:04:48.468Z,100310.69
2022-12-23T21:07:18.518Z,100312.69
2022-12-23T21:09:48.398Z,100316.69
2022-12-23T21:12:19.015Z,100309.75
2022-12-23T21:14:49.228Z,100320.94
2022-12-23T21:17:19.801Z,100317.69
2022-12-23T21:19:49.848Z,100313.94
2022-12-23T21:22:20.278Z,100321.28
2022-12-23T21:24:50.386Z,100308.47
2022-12-23T21:27:20.798Z,100319.56
2022-12-23T21:29:53.546Z,100313.59
2022-12-23T21:32:24.135Z,100314.69
2022-12-23T21:34:54.187Z,100320.66
2022-12-23T21:37:24.655Z,100316.00
